»·PEaware :: N441PW PAJN-CYZP

N441PW :: PAJN-CYZP

FLIGHT INFORMATION

Flight Status: Arrived
Operator: Privately registered:
United States
More flights under this callsign
Pilot: Stacy K. (11621)
Aircraft: CESSNA 404 TITAN
(C404)
More flights by this aircraft type
Origin: PAJN Juneau Intl
United States
Destination: CYZP Sandspit
Canada
More flights between these airports :: More routes between these airports
Route: IME AKW ZZP
File this flight plan on PilotEdge
Remarks:
Altitude:
(Current/Filed)
9,500ft
Speed:
(Current/Filed)
190kts
Departed: 14-Jul-19 03:53 PM
Arrived: 14-Jul-19 05:51 PM
Distance/Time
Traveled:
320nm/1:58
Distance/Time
To Go:
Arrived

Flight Plot

Page will automatically refresh every two minutes.

Flight plan parsing failed; only flown route is shown


Map Options




Map Legend


Flown Route
Filed Route
Departure Airport
Arrival Airport
Navaid (VOR, NDB)
Fix

Horizontal Profiles

Position Reports

Time Latitude Longitude Heading Altitude Ground
Speed
14-Jul-19 15:45 58.359269 -134.588861 13 26ft 0kts
14-Jul-19 15:46 58.359269 -134.588861 13 26ft 0kts
14-Jul-19 15:47 58.359269 -134.588861 13 26ft 0kts
14-Jul-19 15:48 58.359269 -134.588861 13 26ft 0kts
14-Jul-19 15:49 58.359270 -134.588861 13 25ft 0kts
14-Jul-19 15:50 58.359108 -134.589266 270 25ft 2kts
14-Jul-19 15:51 58.358745 -134.594979 282 25ft 16kts
14-Jul-19 15:52 58.355357 -134.578984 104 74ft 105kts
14-Jul-19 15:53 58.336795 -134.520758 121 1030ft 139kts
14-Jul-19 15:54 58.313555 -134.461581 134 2030ft 140kts
14-Jul-19 15:55 58.282835 -134.417282 171 3041ft 141kts
14-Jul-19 15:56 58.252126 -134.455102 241 4047ft 142kts
14-Jul-19 15:57 58.234129 -134.522225 241 5055ft 142kts
14-Jul-19 15:58 58.216281 -134.589228 241 6053ft 142kts
14-Jul-19 15:59 58.197636 -134.656445 232 6937ft 148kts
14-Jul-19 16:00 58.162327 -134.697637 200 7749ft 153kts
14-Jul-19 16:01 58.121973 -134.723111 198 8548ft 152kts
14-Jul-19 16:02 58.081737 -134.747901 198 9328ft 156kts
14-Jul-19 16:03 58.036855 -134.775517 198 9505ft 183kts
14-Jul-19 16:04 57.986980 -134.806072 198 9502ft 191kts
14-Jul-19 16:05 57.936343 -134.837012 198 9504ft 192kts
14-Jul-19 16:06 57.885277 -134.868136 198 9505ft 192kts
14-Jul-19 16:07 57.834117 -134.899241 198 9501ft 193kts
14-Jul-19 16:08 57.782757 -134.930359 198 9502ft 193kts
14-Jul-19 16:09 57.731506 -134.961318 198 9503ft 193kts
14-Jul-19 16:10 57.680134 -134.992283 198 9505ft 193kts
14-Jul-19 16:11 57.628877 -135.023024 198 9506ft 194kts
14-Jul-19 16:12 57.577337 -135.053878 198 9507ft 194kts
14-Jul-19 16:13 57.526054 -135.084472 198 9506ft 194kts
14-Jul-19 16:14 57.474605 -135.115088 198 9508ft 194kts
14-Jul-19 16:15 57.422991 -135.145724 198 9505ft 195kts
14-Jul-19 16:16 57.371135 -135.176422 198 9505ft 195kts
14-Jul-19 16:17 57.319566 -135.206819 198 9503ft 195kts
14-Jul-19 16:18 57.267727 -135.237341 198 9500ft 195kts
14-Jul-19 16:19 57.216097 -135.267582 197 9497ft 195kts
14-Jul-19 16:20 57.164191 -135.297926 197 9496ft 195kts
14-Jul-19 16:21 57.112368 -135.328119 197 9495ft 195kts
14-Jul-19 16:23 57.060320 -135.357285 188 9493ft 195kts
14-Jul-19 16:24 57.013890 -135.311804 139 9495ft 197kts
14-Jul-19 16:25 56.972947 -135.244903 139 9495ft 197kts
14-Jul-19 16:26 56.931945 -135.178403 139 9496ft 196kts
14-Jul-19 16:27 56.890926 -135.112192 139 9500ft 196kts
14-Jul-19 16:28 56.849788 -135.045994 139 9501ft 196kts
14-Jul-19 16:29 56.808776 -134.980155 139 9501ft 196kts
14-Jul-19 16:30 56.767625 -134.914319 139 9500ft 196kts
14-Jul-19 16:31 56.726579 -134.848843 139 9500ft 195kts
14-Jul-19 16:32 56.685524 -134.783558 139 9501ft 195kts
14-Jul-19 16:33 56.644641 -134.718732 139 9510ft 195kts
14-Jul-19 16:34 56.603602 -134.653881 139 9503ft 195kts
14-Jul-19 16:35 56.562419 -134.588972 139 9500ft 195kts
14-Jul-19 16:36 56.521468 -134.524621 139 9504ft 195kts
14-Jul-19 16:37 56.480292 -134.460114 139 9507ft 195kts
14-Jul-19 16:38 56.439233 -134.395997 139 9506ft 195kts
14-Jul-19 16:39 56.398157 -134.332038 139 9499ft 195kts
14-Jul-19 16:40 56.357124 -134.267706 138 9496ft 195kts
14-Jul-19 16:41 56.315848 -134.204137 140 9497ft 194kts
14-Jul-19 16:42 56.274601 -134.140756 139 9495ft 195kts
14-Jul-19 16:42 56.240164 -134.087757 139 9493ft 195kts
14-Jul-19 16:44 56.192088 -134.013968 139 9491ft 195kts
14-Jul-19 16:45 56.150746 -133.950718 139 9489ft 195kts
14-Jul-19 16:45 56.116376 -133.898276 139 9498ft 194kts
14-Jul-19 16:46 56.075031 -133.835360 139 9498ft 195kts
14-Jul-19 16:48 56.026711 -133.762063 140 9497ft 195kts
14-Jul-19 16:48 55.992085 -133.709689 140 9495ft 195kts
14-Jul-19 16:49 55.950742 -133.647327 140 9493ft 195kts
14-Jul-19 16:50 55.909154 -133.584776 140 9491ft 195kts
14-Jul-19 16:51 55.867549 -133.522381 140 9489ft 195kts
14-Jul-19 16:52 55.825921 -133.460135 140 9373ft 201kts
14-Jul-19 16:53 55.781603 -133.394059 140 8690ft 210kts
14-Jul-19 16:54 55.736642 -133.327221 140 8003ft 211kts
14-Jul-19 16:55 55.691568 -133.260437 140 7317ft 211kts
14-Jul-19 16:56 55.646502 -133.193637 140 6625ft 210kts
14-Jul-19 16:57 55.601716 -133.127794 141 5942ft 208kts
14-Jul-19 16:58 55.554762 -133.071593 162 5498ft 198kts
14-Jul-19 16:59 55.503255 -133.043646 163 5493ft 190kts
14-Jul-19 17:00 55.452746 -133.016540 163 5495ft 190kts
14-Jul-19 17:01 55.402124 -132.989244 163 5497ft 190kts
14-Jul-19 17:02 55.351599 -132.962057 163 5499ft 190kts
14-Jul-19 17:03 55.301070 -132.934934 163 5500ft 190kts
14-Jul-19 17:04 55.248154 -132.906625 163 4870ft 204kts
14-Jul-19 17:05 55.193724 -132.877559 163 4189ft 204kts
14-Jul-19 17:06 55.139422 -132.848695 163 3556ft 201kts
14-Jul-19 17:07 55.087914 -132.821302 164 3501ft 189kts
14-Jul-19 17:08 55.037729 -132.794770 163 3501ft 188kts
14-Jul-19 17:09 54.987832 -132.768436 163 3501ft 187kts
14-Jul-19 17:10 54.937380 -132.741875 164 3339ft 195kts
14-Jul-19 17:11 54.884344 -132.713990 164 2757ft 199kts
14-Jul-19 17:12 54.833002 -132.687120 163 2702ft 188kts
14-Jul-19 17:13 54.783223 -132.661133 163 2703ft 186kts
14-Jul-19 17:14 54.733730 -132.635361 163 2709ft 186kts
14-Jul-19 17:15 54.684118 -132.609565 163 2709ft 186kts
14-Jul-19 17:16 54.634253 -132.583716 163 2709ft 187kts
14-Jul-19 17:17 54.584530 -132.558008 163 2709ft 187kts
14-Jul-19 17:18 54.534572 -132.532248 163 2709ft 186kts
14-Jul-19 17:19 54.484794 -132.506643 163 2708ft 186kts
14-Jul-19 17:20 54.435038 -132.481115 163 2707ft 186kts
14-Jul-19 17:21 54.385308 -132.455667 163 2706ft 186kts
14-Jul-19 17:22 54.335508 -132.430247 163 2705ft 186kts
14-Jul-19 17:23 54.285718 -132.404896 163 2704ft 186kts
14-Jul-19 17:24 54.235876 -132.379581 163 2703ft 186kts
14-Jul-19 17:25 54.186106 -132.354367 163 2702ft 186kts
14-Jul-19 17:26 54.136311 -132.329205 163 2702ft 186kts
14-Jul-19 17:27 54.086475 -132.304088 163 2702ft 186kts
14-Jul-19 17:28 54.036591 -132.279001 163 2701ft 187kts
14-Jul-19 17:29 53.986691 -132.253971 163 2703ft 186kts
14-Jul-19 17:30 53.936711 -132.228978 163 2701ft 187kts
14-Jul-19 17:31 53.886805 -132.204072 163 2702ft 187kts
14-Jul-19 17:32 53.836914 -132.179240 163 2702ft 187kts
14-Jul-19 17:33 53.787137 -132.154582 163 2703ft 186kts
14-Jul-19 17:34 53.737202 -132.129816 163 2704ft 187kts
14-Jul-19 17:35 53.687372 -132.105148 163 2705ft 187kts
14-Jul-19 17:36 53.637474 -132.080551 163 2707ft 187kts
14-Jul-19 17:37 53.587611 -132.056035 163 2708ft 186kts
14-Jul-19 17:38 53.537673 -132.031596 163 2709ft 186kts
14-Jul-19 17:39 53.487736 -132.007130 163 2710ft 186kts
14-Jul-19 17:40 53.437962 -131.982827 163 2710ft 186kts
14-Jul-19 17:41 53.388345 -131.958685 163 2712ft 186kts
14-Jul-19 17:42 53.338706 -131.925035 138 2092ft 198kts
14-Jul-19 17:43 53.355530 -131.864537 353 2109ft 188kts
14-Jul-19 17:44 53.407753 -131.876949 351 2110ft 190kts
14-Jul-19 17:45 53.433720 -131.938804 258 2589ft 176kts
14-Jul-19 17:46 53.396164 -131.980852 164 2604ft 183kts
14-Jul-19 17:47 53.353481 -131.933114 144 2479ft 189kts
14-Jul-19 17:48 53.313647 -131.885163 144 1340ft 167kts
14-Jul-19 17:49 53.278056 -131.842383 144 561ft 142kts
14-Jul-19 17:50 53.253144 -131.812649 147 25ft 30kts
14-Jul-19 17:51 53.253564 -131.815916 318 25ft 10kts
14-Jul-19 17:52 53.253379 -131.816255 146 25ft 0kts
14-Jul-19 17:53 53.253379 -131.816255 146 25ft 0kts
14-Jul-19 17:54 53.253379 -131.816255 146 25ft 0kts
14-Jul-19 17:55 53.253379 -131.816255 146 25ft 0kts
14-Jul-19 17:56 53.253379 -131.816255 146 25ft 0kts
14-Jul-19 17:57 53.253379 -131.816255 146 25ft 0kts

Navigation Log

Ident Type
Flight plan parsing failed, navigation log unavailable